Forestburg, TX (76239)

1:45 PM CDT on August 21, 2014 (GMT -0500)
Thomsen | Change Station
CLOSE
Current Station
Personal Weather Station
Location: Forestburg, TX
Elevation: 921 ft
Nearby Weather Stations

Elev 921 ft 33.44 °N, 97.56 °W | Updated 41 seconds ago

Scattered Clouds
Scattered Clouds
96.7 °F
Feels Like 94 °F
N
0.0
Wind Variable Wind from SSE

Today
High -- | Low -- °F
--% Chance of Precip.
Yesterday
High -- | Low -- °F
Precip. -- in
6:56 AM 8:09 PM
Waning Crescent, 13% visible
Pressure 29.99 in
Visibility 10.0 miles
Clouds Scattered Clouds 4300 ft
Heat Index 94 °F
Dew Point 52 °F
Humidity 22%
Rainfall 0.00 in
Snow Depth Not available.
UV 9 out of 12
Pollen 8.70 out of 12
Air Quality Not available.
Flu Activity Not available.
METAR K0F2 211835Z AUTO 15011G18KT 10SM SCT043 34/22 A2999 RMK AO2 T03380216

More Conditions Fewer Conditions

Pressure 29.99 in
Visibility 10.0 miles
Clouds Scattered Clouds 4300 ft
Heat Index 94 °F
Dew Point 52 °F
Humidity 22%
Rainfall 0.00 in
Snow Depth Not available.
UV 9 out of 12
Pollen 8.70 out of 12
Air Quality Not available.
Flu Activity Not available.
METAR K0F2 211835Z AUTO 15011G18KT 10SM SCT043 34/22 A2999 RMK AO2 T03380216

More Conditions Fewer Conditions

10-Day Weather Forecast

Almanac

Astronomy

Aug. 21, 2014 Rise Set
Actual Time 6:56 AM CDT 8:09 PM CDT
Civil Twilight 6:30 AM CDT 8:35 PM CDT
Nautical Twilight 6:00 AM CDT 9:06 PM CDT
Astronomical Twilight 5:28 AM CDT 9:38 PM CDT
Moon 3:33 AM CDT 5:35 PM CDT
Length of Visible Light 14h 04m
Length of Day
13h 12m
Tomorrow will be 1m 54s shorter.
Waning Crescent, 13% of the Moon is Illuminated
Today
Waning Crescent
Aug 25
New
Sep 2
First Quarter
Sep 8
Full
Sep 15
Last Quarter

Today's Extremes

State Highs State Lows

Community

WunderPhotos

Upload Photos

1,745,996 photos uploaded!

WunderBlogs® & News

Nearby

Snow Depth

Station Depth Elevation
No new snow has been reported.

Earthquake Activity

City Distance Mag. Time & Date
No recent earthquake activity has been reported nearby.
Minimum magnitude displayed is 2.5.

Coastal Water Temperatures

Place Temperature
No Stations Reporting

Nearby Weather Stations